Time;durP1;ratioP1;P1;durP2;ratioP2;P2;SDS_P1;SDS_P2;PMS_P1;PMS_P2;Temp;Humidity;BMP_temperature;BMP_pressure;BME280_temperature;BME280_humidity;BME280_pressure;Samples;Min_cycle;Max_cycle;Signal;HPM_P1;HPM_P2
2021/08/21 00:02:07;;;;;;;4.30;3.90;;;13.70;99.90;;;;;;4989983;28;20046;-84
2021/08/21 00:04:38;;;;;;;8.95;3.28;;;13.70;99.90;;;;;;4989839;28;20049;-85
2021/08/21 00:07:06;;;;;;;8.60;4.63;;;13.70;99.90;;;;;;4973303;28;20512;-85
2021/08/21 00:09:38;;;;;;;5.20;4.35;;;13.70;99.90;;;;;;4972863;28;20045;-85
2021/08/21 00:12:06;;;;;;;4.78;4.15;;;13.50;99.90;;;;;;4973171;28;20047;-85
2021/08/21 00:14:36;;;;;;;5.55;4.97;;;13.40;99.90;;;;;;4973638;28;20050;-84
2021/08/21 00:17:09;;;;;;;4.88;4.00;;;13.40;99.90;;;;;;4988746;28;20050;-84
2021/08/21 00:19:37;;;;;;;8.38;4.75;;;13.40;99.90;;;;;;4992997;28;20455;-84
2021/08/21 00:22:04;;;;;;;6.22;5.20;;;13.30;99.90;;;;;;4989892;28;20046;-84
2021/08/21 00:24:32;;;;;;;5.63;5.03;;;13.20;99.90;;;;;;4990027;28;20051;-84
2021/08/21 00:27:07;;;;;;;6.50;4.78;;;13.20;99.90;;;;;;4990808;28;20487;-84
2021/08/21 00:29:35;;;;;;;5.72;4.13;;;13.20;99.90;;;;;;4988241;28;20042;-84
2021/08/21 00:32:11;;;;;;;4.55;4.10;;;13.20;99.90;;;;;;4958189;28;20126;-84
2021/08/21 00:34:39;;;;;;;5.65;5.22;;;13.20;99.90;;;;;;4989221;28;20050;-84
2021/08/21 00:37:06;;;;;;;8.07;5.20;;;13.20;99.90;;;;;;4972166;28;20061;-84
2021/08/21 00:39:35;;;;;;;5.88;4.72;;;13.30;99.90;;;;;;4991404;28;20039;-84
2021/08/21 00:42:05;;;;;;;5.95;4.28;;;13.30;99.90;;;;;;4992885;28;20376;-84
2021/08/21 00:44:34;;;;;;;5.70;4.95;;;13.20;99.90;;;;;;4992366;28;20046;-83
2021/08/21 00:47:04;;;;;;;8.32;4.88;;;13.00;99.90;;;;;;5001651;28;20053;-84
2021/08/21 00:49:34;;;;;;;8.77;4.47;;;12.90;99.90;;;;;;4992025;28;20043;-84
2021/08/21 00:52:04;;;;;;;5.43;4.93;;;13.00;99.90;;;;;;4991709;28;20043;-84
2021/08/21 00:54:33;;;;;;;8.85;5.70;;;13.00;99.90;;;;;;4992880;28;20488;-83
2021/08/21 00:57:02;;;;;;;6.45;5.82;;;12.90;99.90;;;;;;4992288;28;20049;-83
2021/08/21 00:59:38;;;;;;;7.55;6.05;;;13.00;99.90;;;;;;5010157;28;20042;-83
2021/08/21 01:02:11;;;;;;;8.07;7.28;;;13.00;99.90;;;;;;4991324;28;20050;-84
2021/08/21 01:04:41;;;;;;;7.90;6.55;;;13.10;99.90;;;;;;4993499;28;20492;-84
2021/08/21 01:07:21;;;;;;;7.15;5.45;;;13.10;99.90;;;;;;4991989;28;20054;-84
2021/08/21 01:09:49;;;;;;;7.72;6.25;;;13.00;99.90;;;;;;5004703;28;20496;-84
2021/08/21 01:12:20;;;;;;;7.72;5.35;;;12.90;99.90;;;;;;4990947;28;20499;-84
2021/08/21 01:14:49;;;;;;;7.05;5.53;;;12.90;99.90;;;;;;4991439;28;20058;-83
2021/08/21 01:17:19;;;;;;;17.08;6.50;;;12.90;99.90;;;;;;4986806;28;20050;-84
2021/08/21 01:19:51;;;;;;;8.27;7.20;;;12.90;99.90;;;;;;4977027;28;20377;-84
2021/08/21 01:22:25;;;;;;;7.15;6.43;;;12.90;99.90;;;;;;4971972;28;20051;-83
2021/08/21 01:25:03;;;;;;;7.78;7.07;;;12.90;99.90;;;;;;4972069;28;20049;-84
2021/08/21 01:27:32;;;;;;;10.30;7.97;;;13.00;99.90;;;;;;4987036;28;20038;-84
2021/08/21 01:30:19;;;;;;;6.97;6.32;;;13.00;99.90;;;;;;4975501;28;20046;-84
2021/08/21 01:32:54;;;;;;;8.73;7.82;;;13.00;99.90;;;;;;4989120;28;20042;-83
2021/08/21 01:35:26;;;;;;;7.45;6.45;;;12.90;99.90;;;;;;4956592;28;20503;-83
2021/08/21 01:37:54;;;;;;;7.75;6.28;;;12.90;99.90;;;;;;4972076;28;20078;-83
2021/08/21 01:40:49;;;;;;;8.48;6.88;;;13.00;99.90;;;;;;4973051;28;20043;-84
2021/08/21 01:43:18;;;;;;;8.80;6.28;;;13.00;99.90;;;;;;4990206;28;20046;-84
2021/08/21 01:45:49;;;;;;;6.75;5.55;;;12.90;99.90;;;;;;4973797;28;20062;-83
2021/08/21 01:48:18;;;;;;;7.78;6.90;;;12.90;99.90;;;;;;5010717;28;20411;-84
2021/08/21 01:50:46;;;;;;;7.57;6.38;;;12.80;99.90;;;;;;5012511;28;20061;-83
2021/08/21 01:53:16;;;;;;;6.63;5.97;;;12.70;99.90;;;;;;4993969;28;20054;-83
2021/08/21 01:55:46;;;;;;;6.63;5.97;;;12.70;99.90;;;;;;4992887;28;20054;-83
2021/08/21 01:58:34;;;;;;;7.07;5.63;;;12.70;99.90;;;;;;5008619;28;20057;-84
2021/08/21 02:01:16;;;;;;;7.93;6.38;;;12.70;99.90;;;;;;5008747;28;20046;-84
2021/08/21 02:04:07;;;;;;;7.05;5.95;;;12.70;99.90;;;;;;4993101;28;20105;-84
2021/08/21 02:06:34;;;;;;;7.93;5.95;;;12.70;99.90;;;;;;4975897;28;20791;-83
2021/08/21 02:09:03;;;;;;;8.85;7.53;;;12.70;99.90;;;;;;4975806;28;20080;-84
2021/08/21 02:11:31;;;;;;;8.82;7.30;;;12.70;99.90;;;;;;4983431;28;20377;-84
2021/08/21 02:13:59;;;;;;;8.05;7.07;;;12.60;99.90;;;;;;4971465;28;20416;-83
2021/08/21 02:16:28;;;;;;;7.40;5.80;;;12.70;99.90;;;;;;4992765;28;20050;-84
2021/08/21 02:18:56;;;;;;;10.20;7.30;;;12.70;99.90;;;;;;5002468;28;20038;-84
2021/08/21 02:21:39;;;;;;;7.80;6.85;;;12.70;99.90;;;;;;4989584;28;20500;-84
2021/08/21 02:24:09;;;;;;;7.75;6.88;;;12.60;99.90;;;;;;4974548;28;20539;-84
2021/08/21 02:26:42;;;;;;;9.82;8.93;;;12.60;99.90;;;;;;4992166;28;20488;-85
2021/08/21 02:29:14;;;;;;;10.50;8.30;;;12.60;99.90;;;;;;4974614;28;20051;-84
2021/08/21 02:31:41;;;;;;;7.25;6.38;;;12.60;99.90;;;;;;4990134;28;20136;-84
2021/08/21 02:34:09;;;;;;;7.80;5.45;;;12.60;99.90;;;;;;4990942;28;20058;-84
2021/08/21 02:36:37;;;;;;;7.57;6.22;;;12.60;99.90;;;;;;4989722;28;20038;-84
2021/08/21 02:39:05;;;;;;;8.30;7.60;;;12.60;99.90;;;;;;4991712;28;20054;-84
2021/08/21 02:41:33;;;;;;;10.60;7.75;;;12.50;99.90;;;;;;4989908;28;20408;-84
2021/08/21 02:44:02;;;;;;;10.70;6.93;;;12.60;99.90;;;;;;4973693;28;20047;-84
2021/08/21 02:46:30;;;;;;;14.48;7.75;;;12.60;99.90;;;;;;4990047;28;20046;-84
2021/08/21 02:48:58;;;;;;;7.32;6.50;;;12.60;99.90;;;;;;4986877;28;20058;-84
2021/08/21 02:51:26;;;;;;;11.05;9.88;;;12.60;99.90;;;;;;4970642;28;20484;-84
2021/08/21 02:53:54;;;;;;;7.35;6.45;;;12.50;99.90;;;;;;4970264;28;20061;-84
2021/08/21 02:56:22;;;;;;;7.68;6.53;;;12.50;99.90;;;;;;4975747;28;20045;-84
2021/08/21 02:58:52;;;;;;;9.15;7.95;;;12.60;99.90;;;;;;4974296;28;20053;-84
2021/08/21 03:01:22;;;;;;;8.70;7.57;;;12.60;99.90;;;;;;4989395;28;20042;-84
2021/08/21 03:03:51;;;;;;;9.48;6.70;;;12.60;99.90;;;;;;4957927;28;20035;-84
2021/08/21 03:06:19;;;;;;;9.23;6.75;;;12.50;99.90;;;;;;4990055;28;20399;-84
2021/08/21 03:08:49;;;;;;;9.65;7.20;;;12.40;99.90;;;;;;4988873;28;20400;-84
2021/08/21 03:11:24;;;;;;;9.88;6.80;;;12.30;99.90;;;;;;4992513;28;20042;-85
2021/08/21 03:14:15;;;;;;;11.35;10.02;;;12.30;99.90;;;;;;5009279;28;20395;-84
2021/08/21 03:16:43;;;;;;;8.75;7.85;;;12.30;99.90;;;;;;4985563;28;20046;-85
2021/08/21 03:19:12;;;;;;;15.80;8.07;;;12.40;99.90;;;;;;4989921;28;20050;-84
2021/08/21 03:21:40;;;;;;;14.95;10.75;;;12.40;99.90;;;;;;4989402;28;20053;-84
2021/08/21 03:24:08;;;;;;;10.80;7.45;;;12.40;99.90;;;;;;4989488;28;20050;-85
2021/08/21 03:26:41;;;;;;;8.93;7.70;;;12.30;99.90;;;;;;4990219;28;20058;-84
2021/08/21 03:29:09;;;;;;;11.85;8.48;;;12.30;99.90;;;;;;5004623;28;20046;-84
2021/08/21 03:31:39;;;;;;;7.95;7.10;;;12.30;99.90;;;;;;4989631;28;20061;-84
2021/08/21 03:34:07;;;;;;;11.20;9.43;;;12.30;99.90;;;;;;4989569;28;20514;-84
2021/08/21 03:36:35;;;;;;;7.45;6.53;;;12.30;99.90;;;;;;4989142;28;20061;-85
2021/08/21 03:39:03;;;;;;;8.93;8.07;;;12.30;99.90;;;;;;4989727;28;20065;-85
2021/08/21 03:41:31;;;;;;;8.25;7.43;;;12.30;99.90;;;;;;4989326;28;20049;-84
2021/08/21 03:44:04;;;;;;;10.15;7.25;;;12.30;99.90;;;;;;4989100;28;20054;-84
2021/08/21 03:46:34;;;;;;;8.27;7.32;;;12.30;99.90;;;;;;4956355;28;20055;-85
2021/08/21 03:49:03;;;;;;;7.85;7.05;;;12.30;99.90;;;;;;4989327;28;20046;-85
2021/08/21 03:51:32;;;;;;;15.25;8.07;;;12.20;99.90;;;;;;4973179;28;20487;-85
2021/08/21 03:54:01;;;;;;;7.45;6.25;;;12.20;99.90;;;;;;4973519;28;20042;-85
2021/08/21 03:56:33;;;;;;;8.80;7.55;;;12.20;99.90;;;;;;4973255;28;20057;-84
2021/08/21 03:59:08;;;;;;;9.93;7.95;;;12.20;99.90;;;;;;4989042;28;20467;-84
2021/08/21 04:01:45;;;;;;;8.77;7.90;;;12.20;99.90;;;;;;4987792;28;20050;-85
2021/08/21 04:04:22;;;;;;;7.68;6.78;;;12.20;99.90;;;;;;4973251;28;20053;-85
2021/08/21 04:06:50;;;;;;;14.25;9.50;;;12.20;99.90;;;;;;4973657;28;20049;-85
2021/08/21 04:09:23;;;;;;;9.63;7.20;;;12.20;99.90;;;;;;4974825;28;20042;-85
2021/08/21 04:11:56;;;;;;;8.65;7.75;;;12.20;99.90;;;;;;4994759;28;20085;-85
2021/08/21 04:14:25;;;;;;;8.02;7.32;;;12.20;99.90;;;;;;4972960;28;20039;-85
2021/08/21 04:16:53;;;;;;;8.07;6.72;;;12.20;99.90;;;;;;4976421;28;20077;-85
2021/08/21 04:19:21;;;;;;;7.55;6.82;;;12.20;99.90;;;;;;4992774;28;20464;-84
2021/08/21 04:21:52;;;;;;;9.95;7.50;;;12.30;99.90;;;;;;4992576;28;20049;-84
2021/08/21 04:24:32;;;;;;;8.70;7.22;;;12.30;99.90;;;;;;4992617;28;20885;-84
2021/08/21 04:27:03;;;;;;;6.80;6.10;;;12.20;99.90;;;;;;4993461;28;20053;-85
2021/08/21 04:29:33;;;;;;;7.85;5.60;;;12.10;99.90;;;;;;4973031;28;20062;-84
2021/08/21 04:32:02;;;;;;;6.40;5.82;;;12.10;99.90;;;;;;4973725;28;20050;-82
2021/08/21 04:34:34;;;;;;;5.45;4.90;;;12.00;99.90;;;;;;4973714;28;20051;-82
2021/08/21 04:37:06;;;;;;;6.28;5.70;;;11.90;99.90;;;;;;4972899;28;20050;-82
2021/08/21 04:39:38;;;;;;;5.70;5.18;;;11.90;99.90;;;;;;4992268;28;20122;-82
2021/08/21 04:42:06;;;;;;;6.25;5.75;;;11.90;99.90;;;;;;4976738;28;20062;-82
2021/08/21 04:44:34;;;;;;;7.05;6.05;;;11.80;99.90;;;;;;4976071;28;20039;-82
2021/08/21 04:47:02;;;;;;;10.27;8.85;;;11.80;99.90;;;;;;5000885;28;20765;-82
2021/08/21 04:49:30;;;;;;;10.35;8.05;;;11.80;99.90;;;;;;4974274;28;20416;-82
2021/08/21 04:51:59;;;;;;;8.63;7.30;;;11.90;99.90;;;;;;4991981;28;20057;-82
2021/08/21 04:54:27;;;;;;;9.40;7.75;;;12.00;99.90;;;;;;4992528;28;20046;-82
2021/08/21 04:56:55;;;;;;;14.35;9.27;;;12.10;99.90;;;;;;4993453;28;20046;-82
2021/08/21 04:59:25;;;;;;;11.18;7.53;;;12.20;99.90;;;;;;4991477;28;20050;-82
2021/08/21 05:01:57;;;;;;;10.48;8.65;;;12.20;99.90;;;;;;4992082;28;20053;-82
2021/08/21 05:04:25;;;;;;;12.95;7.65;;;12.30;99.90;;;;;;4992087;28;20487;-82
2021/08/21 05:06:52;;;;;;;9.98;8.77;;;12.50;99.90;;;;;;4992508;28;20039;-82
2021/08/21 05:09:21;;;;;;;10.10;7.07;;;12.60;99.90;;;;;;4991833;28;20042;-82
2021/08/21 05:11:53;;;;;;;12.95;8.27;;;12.70;99.90;;;;;;4974831;28;20057;-82
2021/08/21 05:14:22;;;;;;;10.15;6.20;;;12.80;99.90;;;;;;5009431;28;20045;-82
2021/08/21 05:16:50;;;;;;;13.27;10.70;;;12.90;99.90;;;;;;4988286;28;20050;-82
2021/08/21 05:19:44;;;;;;;13.00;8.45;;;13.00;99.90;;;;;;4999773;28;20057;-83
2021/08/21 05:22:38;;;;;;;11.30;8.55;;;13.10;99.90;;;;;;4991456;28;20042;-83
2021/08/21 05:25:07;;;;;;;10.60;7.72;;;13.20;99.90;;;;;;4991238;28;20050;-83
2021/08/21 05:27:35;;;;;;;9.25;8.32;;;13.40;99.90;;;;;;4959837;28;20050;-83
2021/08/21 05:30:04;;;;;;;14.23;7.78;;;13.50;99.90;;;;;;4991893;28;20058;-83
2021/08/21 05:32:33;;;;;;;12.27;6.93;;;13.60;99.90;;;;;;4991945;28;20046;-83
2021/08/21 05:35:00;;;;;;;8.50;7.70;;;13.70;99.90;;;;;;4991894;28;20070;-83
2021/08/21 05:37:28;;;;;;;8.38;7.53;;;13.70;99.90;;;;;;4992344;28;20073;-83
2021/08/21 05:39:56;;;;;;;9.05;8.20;;;13.80;99.90;;;;;;4974934;28;20415;-84
2021/08/21 05:42:24;;;;;;;10.40;6.93;;;14.00;99.90;;;;;;4991780;28;20042;-84
2021/08/21 05:44:51;;;;;;;8.90;7.28;;;14.20;99.90;;;;;;4992269;28;20034;-84
2021/08/21 05:47:19;;;;;;;6.70;5.90;;;14.40;99.90;;;;;;5003611;28;20475;-84
2021/08/21 05:49:47;;;;;;;7.72;7.03;;;14.40;99.90;;;;;;4994817;28;20077;-85
2021/08/21 05:52:15;;;;;;;7.57;6.75;;;14.60;99.90;;;;;;5006505;28;20412;-84
2021/08/21 05:54:42;;;;;;;8.82;5.85;;;14.80;99.90;;;;;;4991415;28;20047;-85
2021/08/21 05:57:23;;;;;;;7.63;6.75;;;15.00;99.90;;;;;;4991176;28;20054;-85
2021/08/21 05:59:51;;;;;;;9.18;6.68;;;15.30;99.90;;;;;;4991660;28;20050;-85
2021/08/21 06:02:18;;;;;;;8.35;6.20;;;15.40;99.90;;;;;;4992424;28;20045;-85
2021/08/21 06:04:46;;;;;;;9.15;6.22;;;15.60;99.90;;;;;;4991684;28;20062;-85
2021/08/21 06:07:14;;;;;;;7.38;6.65;;;15.80;99.90;;;;;;4974822;28;20039;-85
2021/08/21 06:09:41;;;;;;;8.60;6.60;;;15.90;99.90;;;;;;4996608;28;20053;-85
2021/08/21 06:12:09;;;;;;;10.45;6.53;;;16.00;99.90;;;;;;4994476;28;20043;-85
2021/08/21 06:14:38;;;;;;;10.93;7.03;;;16.20;99.90;;;;;;4990794;28;20486;-85
2021/08/21 06:17:07;;;;;;;7.22;6.40;;;16.30;99.90;;;;;;5001342;28;20053;-86
2021/08/21 06:19:37;;;;;;;6.78;6.13;;;16.40;99.90;;;;;;4998336;28;20057;-85
2021/08/21 06:22:08;;;;;;;10.23;8.00;;;16.60;99.90;;;;;;4990613;28;20050;-85
2021/08/21 06:24:36;;;;;;;6.72;5.15;;;16.70;99.90;;;;;;4991537;28;20054;-85
2021/08/21 06:27:04;;;;;;;6.38;5.55;;;16.90;99.90;;;;;;4991790;28;20046;-85
2021/08/21 06:29:35;;;;;;;7.97;5.88;;;17.10;99.90;;;;;;4990262;28;20051;-85
2021/08/21 06:32:04;;;;;;;7.60;6.95;;;17.30;99.90;;;;;;4991703;28;20510;-85
2021/08/21 06:34:35;;;;;;;8.52;6.50;;;17.50;99.90;;;;;;4992090;28;20046;-86
2021/08/21 06:37:05;;;;;;;7.65;4.68;;;17.60;99.90;;;;;;4973492;28;20046;-84
2021/08/21 06:39:33;;;;;;;7.35;6.03;;;17.80;99.90;;;;;;4991172;28;20042;-84
2021/08/21 06:42:02;;;;;;;7.38;5.55;;;18.10;99.90;;;;;;4992127;28;20058;-84
2021/08/21 06:44:31;;;;;;;7.50;5.60;;;18.40;99.90;;;;;;4989520;28;20046;-84
2021/08/21 06:46:58;;;;;;;7.05;6.35;;;18.50;99.90;;;;;;4991882;28;20057;-84
2021/08/21 06:49:26;;;;;;;8.98;6.03;;;18.60;99.90;;;;;;4972074;28;20046;-85
2021/08/21 06:51:54;;;;;;;6.60;5.35;;;18.50;99.90;;;;;;4971133;28;20047;-84
2021/08/21 06:54:26;;;;;;;8.10;6.93;;;18.50;99.90;;;;;;4977721;28;20046;-85
2021/08/21 06:56:55;;;;;;;5.97;4.15;;;18.50;99.90;;;;;;4991171;28;20042;-85
2021/08/21 06:59:22;;;;;;;6.15;5.03;;;18.40;99.90;;;;;;4990956;28;20046;-85
2021/08/21 07:01:50;;;;;;;7.28;4.88;;;18.50;99.90;;;;;;4991340;28;20395;-85
2021/08/21 07:04:18;;;;;;;6.88;5.32;;;18.70;99.90;;;;;;5004160;28;20610;-85
2021/08/21 07:06:48;;;;;;;5.78;4.93;;;18.90;99.90;;;;;;4991473;28;20054;-85
2021/08/21 07:09:22;;;;;;;7.35;5.40;;;19.30;99.90;;;;;;4974558;28;20038;-85
2021/08/21 07:11:49;;;;;;;5.45;4.88;;;19.20;99.90;;;;;;4989738;28;20046;-86
2021/08/21 07:14:17;;;;;;;9.73;5.90;;;19.30;99.90;;;;;;4991363;28;20094;-85
2021/08/21 07:16:45;;;;;;;8.43;5.50;;;19.30;99.90;;;;;;4972971;28;20051;-85
2021/08/21 07:19:13;;;;;;;9.88;6.07;;;19.30;99.90;;;;;;4973615;28;20054;-84
2021/08/21 07:21:40;;;;;;;4.60;4.18;;;19.40;99.90;;;;;;4989562;28;20054;-84
2021/08/21 07:24:09;;;;;;;5.50;4.57;;;19.30;99.90;;;;;;4989386;28;20049;-86
2021/08/21 07:26:43;;;;;;;6.32;5.30;;;19.20;99.90;;;;;;4989952;28;20046;-84
2021/08/21 07:29:16;;;;;;;9.18;6.55;;;19.40;99.90;;;;;;4990275;28;20050;-85
2021/08/21 07:31:44;;;;;;;8.90;5.47;;;19.60;99.90;;;;;;4990411;28;20042;-85
2021/08/21 07:34:12;;;;;;;6.95;5.50;;;19.50;99.90;;;;;;4977412;28;20424;-85
2021/08/21 07:36:39;;;;;;;7.85;5.03;;;19.10;99.90;;;;;;4983250;28;20058;-85
2021/08/21 07:39:10;;;;;;;10.25;6.00;;;19.30;99.90;;;;;;4989995;28;20053;-85
2021/08/21 07:41:40;;;;;;;9.07;5.55;;;19.60;99.90;;;;;;4989109;28;20403;-85
2021/08/21 07:44:08;;;;;;;6.53;4.93;;;19.50;99.90;;;;;;4988870;28;20061;-85
2021/08/21 07:46:35;;;;;;;7.10;4.75;;;19.50;99.90;;;;;;4990956;28;20051;-85
2021/08/21 07:49:03;;;;;;;6.47;4.97;;;19.60;99.90;;;;;;4994311;28;20058;-84
2021/08/21 07:51:31;;;;;;;6.13;5.53;;;19.60;99.90;;;;;;4994163;28;20389;-85
2021/08/21 07:53:59;;;;;;;7.43;4.97;;;19.30;99.90;;;;;;4994656;28;20058;-86
2021/08/21 07:56:27;;;;;;;6.05;5.07;;;19.20;99.90;;;;;;4993789;28;20046;-85
2021/08/21 07:58:55;;;;;;;7.88;5.30;;;19.20;99.90;;;;;;4994655;28;20054;-86
2021/08/21 08:01:24;;;;;;;9.20;5.78;;;19.30;99.90;;;;;;4992023;28;20046;-85
2021/08/21 08:03:52;;;;;;;10.52;5.70;;;19.30;99.90;;;;;;4992904;28;20042;-86
2021/08/21 08:06:20;;;;;;;5.97;5.00;;;19.50;99.90;;;;;;4993485;28;20049;-87
2021/08/21 08:08:47;;;;;;;7.60;4.93;;;19.60;99.90;;;;;;4993968;28;20054;-88
2021/08/21 08:11:15;;;;;;;6.53;4.80;;;19.80;99.90;;;;;;4993987;28;20054;-86
2021/08/21 08:13:43;;;;;;;8.68;4.47;;;20.00;99.90;;;;;;4994530;28;20066;-84
2021/08/21 08:16:11;;;;;;;6.93;6.22;;;20.00;99.90;;;;;;4980307;28;20046;-84
2021/08/21 08:18:39;;;;;;;6.85;5.40;;;19.90;99.90;;;;;;4994271;28;20042;-84
2021/08/21 08:21:06;;;;;;;7.53;5.80;;;20.10;99.90;;;;;;4993899;28;20038;-85
2021/08/21 08:23:34;;;;;;;6.82;5.07;;;20.20;99.90;;;;;;4991430;28;20038;-85
2021/08/21 08:26:02;;;;;;;5.53;4.72;;;20.40;99.90;;;;;;4994602;28;20062;-87
2021/08/21 08:28:29;;;;;;;7.63;4.88;;;20.60;99.90;;;;;;4993707;28;20057;-87
2021/08/21 08:30:57;;;;;;;8.45;5.90;;;20.90;99.90;;;;;;4992612;28;20077;-85
2021/08/21 08:33:25;;;;;;;8.30;5.95;;;20.80;99.90;;;;;;4992201;28;20047;-87
2021/08/21 08:35:52;;;;;;;7.05;5.75;;;20.90;99.90;;;;;;4977006;28;20050;-82
2021/08/21 08:38:20;;;;;;;6.30;5.70;;;20.80;99.90;;;;;;4990211;28;20116;-88
2021/08/21 08:40:49;;;;;;;6.45;5.88;;;20.90;99.90;;;;;;4992407;28;20056;-88
2021/08/21 08:43:19;;;;;;;6.75;4.47;;;20.90;99.90;;;;;;4972797;28;20050;-86
2021/08/21 08:45:47;;;;;;;7.15;6.38;;;20.90;99.90;;;;;;4975112;28;20066;-87
2021/08/21 08:48:19;;;;;;;7.82;6.18;;;21.00;99.90;;;;;;4984363;28;20506;-84
2021/08/21 08:50:49;;;;;;;5.70;5.13;;;21.10;99.90;;;;;;4993687;28;20054;-83
2021/08/21 08:53:16;;;;;;;8.63;7.60;;;21.10;99.90;;;;;;4991854;28;20483;-82
2021/08/21 08:55:46;;;;;;;10.55;5.85;;;21.10;99.90;;;;;;4993235;28;20073;-84
